createdAt,value
2018-06-04T00:00:24.956Z,30.03
2018-06-04T00:02:53.611Z,27.50
2018-06-04T00:05:22.260Z,30.87
2018-06-04T00:07:50.911Z,29.53
2018-06-04T00:10:19.554Z,28.97
2018-06-04T00:12:48.226Z,31.43
2018-06-04T00:15:16.879Z,28.93
2018-06-04T00:17:45.507Z,29.97
2018-06-04T00:20:14.189Z,29.67
2018-06-04T00:22:43.434Z,28.40
2018-06-04T00:25:12.135Z,27.23
2018-06-04T00:27:40.772Z,30.43
2018-06-04T00:30:09.403Z,29.97
2018-06-04T00:32:38.075Z,31.80
2018-06-04T00:35:06.833Z,33.87
2018-06-04T00:37:35.463Z,33.27
2018-06-04T00:40:04.212Z,32.60
2018-06-04T00:42:33.224Z,34.93
2018-06-04T00:45:01.864Z,34.73
2018-06-04T00:47:30.544Z,34.60
2018-06-04T00:49:59.162Z,33.33
2018-06-04T00:52:27.845Z,37.00
2018-06-04T00:54:56.471Z,35.33
2018-06-04T00:57:25.137Z,37.13
2018-06-04T00:59:53.804Z,36.10
2018-06-04T01:02:22.461Z,35.70
2018-06-04T01:04:51.125Z,35.60
2018-06-04T01:07:19.751Z,35.60
2018-06-04T01:09:48.419Z,35.60
2018-06-04T01:12:17.092Z,35.13
2018-06-04T01:14:45.859Z,36.43
2018-06-04T01:17:14.625Z,33.10
2018-06-04T01:19:43.315Z,34.67
2018-06-04T01:22:11.965Z,33.30
2018-06-04T01:24:40.687Z,36.37
2018-06-04T01:27:09.335Z,36.63
2018-06-04T01:29:38.065Z,35.10
2018-06-04T01:32:06.779Z,35.60
2018-06-04T01:34:35.451Z,32.90
2018-06-04T01:37:04.222Z,34.43
2018-06-04T01:39:32.872Z,34.23
2018-06-04T01:42:01.508Z,34.53
2018-06-04T01:44:30.151Z,37.27
2018-06-04T01:46:58.828Z,37.33
2018-06-04T01:49:27.495Z,38.30
2018-06-04T01:51:56.275Z,38.87
2018-06-04T01:54:24.884Z,40.63
2018-06-04T01:56:53.515Z,39.23
2018-06-04T01:59:22.190Z,38.57
2018-06-04T02:01:50.893Z,40.20
2018-06-04T02:04:19.565Z,41.80
2018-06-04T02:06:48.296Z,38.13
2018-06-04T02:09:17.179Z,35.97
2018-06-04T02:11:45.772Z,32.33
2018-06-04T02:14:14.433Z,27.47
2018-06-04T02:16:43.077Z,25.37
2018-06-04T02:19:11.720Z,21.40
2018-06-04T02:21:40.349Z,19.30
2018-06-04T02:24:09.327Z,20.17
2018-06-04T02:26:37.915Z,18.83
2018-06-04T02:29:06.663Z,18.23
2018-06-04T02:31:35.360Z,18.20
2018-06-04T02:34:04.029Z,19.00
2018-06-04T02:36:32.676Z,18.87
2018-06-04T02:39:01.344Z,18.37
2018-06-04T02:41:29.962Z,16.90
2018-06-04T02:43:58.646Z,17.20
2018-06-04T02:46:27.288Z,16.70
2018-06-04T02:48:55.911Z,16.50
2018-06-04T02:51:24.519Z,18.07
2018-06-04T02:53:53.186Z,16.60
2018-06-04T02:56:21.829Z,18.17
2018-06-04T02:58:50.480Z,17.67
2018-06-04T03:01:19.128Z,17.40
2018-06-04T03:03:47.816Z,16.67
2018-06-04T03:06:16.485Z,16.43
2018-06-04T03:08:45.104Z,16.57
2018-06-04T03:11:13.785Z,17.07
2018-06-04T03:13:42.454Z,16.90
2018-06-04T03:16:11.099Z,18.47
2018-06-04T03:18:39.711Z,17.07
2018-06-04T03:21:08.379Z,17.57
2018-06-04T03:23:37.137Z,16.80
2018-06-04T03:26:05.780Z,17.37
2018-06-04T03:28:34.387Z,17.13
2018-06-04T03:31:03.065Z,16.43
2018-06-04T03:33:31.776Z,15.90
2018-06-04T03:36:00.418Z,14.40
2018-06-04T03:38:29.085Z,15.67
2018-06-04T03:40:57.712Z,16.63
2018-06-04T03:43:26.399Z,14.83
2018-06-04T03:45:55.020Z,15.97
2018-06-04T03:48:23.708Z,14.73
2018-06-04T03:50:52.380Z,14.20
2018-06-04T03:53:21.004Z,16.10
2018-06-04T03:55:49.663Z,16.00
2018-06-04T03:58:18.290Z,14.70
2018-06-04T04:00:46.969Z,14.57
2018-06-04T04:03:15.585Z,15.37
2018-06-04T04:05:44.268Z,14.00
2018-06-04T04:08:12.963Z,14.60
2018-06-04T04:10:41.603Z,16.13
2018-06-04T04:13:10.287Z,14.13
2018-06-04T04:15:38.982Z,14.30
2018-06-04T04:18:07.594Z,15.67
2018-06-04T04:20:36.444Z,14.47
2018-06-04T04:23:05.284Z,14.43
2018-06-04T04:25:33.949Z,15.60
2018-06-04T04:28:02.568Z,15.47
2018-06-04T04:30:31.190Z,14.03
2018-06-04T04:32:59.817Z,13.97
2018-06-04T04:35:28.438Z,13.90
2018-06-04T04:37:57.119Z,15.07
2018-06-04T04:40:25.744Z,15.23
2018-06-04T04:42:54.496Z,15.73
2018-06-04T04:45:23.213Z,15.07
2018-06-04T04:47:51.927Z,14.77
2018-06-04T04:50:20.576Z,14.90
2018-06-04T04:52:49.223Z,14.53
2018-06-04T04:55:17.843Z,14.07
2018-06-04T04:57:46.509Z,15.33
2018-06-04T05:00:15.179Z,14.40
2018-06-04T05:02:43.948Z,15.70
2018-06-04T05:05:12.568Z,16.20
2018-06-04T05:07:41.213Z,15.40
2018-06-04T05:10:09.870Z,16.93
2018-06-04T05:12:38.555Z,16.80
2018-06-04T05:15:07.217Z,16.77
2018-06-04T05:17:35.860Z,16.00
2018-06-04T05:20:04.488Z,17.30
2018-06-04T05:22:33.184Z,17.43
2018-06-04T05:25:01.926Z,19.47
2018-06-04T05:27:30.539Z,18.40
2018-06-04T05:29:59.320Z,18.80
2018-06-04T05:32:27.980Z,19.17
2018-06-04T05:34:56.584Z,20.00
2018-06-04T05:37:25.247Z,18.10
2018-06-04T05:39:53.888Z,21.00
2018-06-04T05:42:22.546Z,19.43
2018-06-04T05:44:51.210Z,19.47
2018-06-04T05:47:19.851Z,19.13
2018-06-04T05:49:48.473Z,21.57
2018-06-04T05:52:17.113Z,19.87
2018-06-04T05:54:45.711Z,18.60
2018-06-04T05:57:14.356Z,20.50
2018-06-04T05:59:43.020Z,21.30
2018-06-04T06:02:11.652Z,20.30
2018-06-04T06:04:40.304Z,22.03
2018-06-04T06:07:09.011Z,21.27
2018-06-04T06:09:37.655Z,22.87
2018-06-04T06:12:06.332Z,20.10
2018-06-04T06:14:35.072Z,20.50
2018-06-04T06:17:03.715Z,21.83
2018-06-04T06:19:32.932Z,23.47
2018-06-04T06:22:01.596Z,21.60
2018-06-04T06:24:30.217Z,24.63
2018-06-04T06:26:58.855Z,20.30
2018-06-04T06:29:27.459Z,24.43
2018-06-04T06:31:56.124Z,25.30
2018-06-04T06:34:24.780Z,22.60
2018-06-04T06:36:53.420Z,24.67
2018-06-04T06:39:22.067Z,21.97
2018-06-04T06:41:50.748Z,21.97
2018-06-04T06:44:19.420Z,22.43
2018-06-04T06:46:48.063Z,24.63
2018-06-04T06:49:16.661Z,24.90
2018-06-04T06:51:45.508Z,26.20
2018-06-04T06:54:14.651Z,24.97
2018-06-04T06:56:43.279Z,23.17
2018-06-04T06:59:12.532Z,25.33
2018-06-04T07:01:41.123Z,24.37
2018-06-04T07:04:09.801Z,24.90
2018-06-04T07:06:38.463Z,24.47
2018-06-04T07:09:08.452Z,22.60
2018-06-04T07:11:37.117Z,22.60
2018-06-04T07:14:05.923Z,22.60
2018-06-04T07:16:34.605Z,24.50
2018-06-04T07:19:03.308Z,22.90
2018-06-04T07:21:32.018Z,21.60
2018-06-04T07:24:00.615Z,23.90
2018-06-04T07:26:29.303Z,22.23
2018-06-04T07:28:58.003Z,21.53
2018-06-04T07:31:26.654Z,19.93
2018-06-04T07:33:55.632Z,21.73
2018-06-04T07:36:24.317Z,22.00
2018-06-04T07:38:52.945Z,20.97
2018-06-04T07:41:21.771Z,20.17
2018-06-04T07:43:50.328Z,19.77
2018-06-04T07:46:18.962Z,17.57
2018-06-04T07:48:47.617Z,17.53
2018-06-04T07:51:17.173Z,18.70
2018-06-04T07:53:45.825Z,14.47
2018-06-04T07:56:14.443Z,14.90
2018-06-04T07:58:43.108Z,16.77
2018-06-04T08:01:11.776Z,17.23
2018-06-04T08:03:40.481Z,18.77
2018-06-04T08:06:09.139Z,15.90
2018-06-04T08:08:37.740Z,16.70
2018-06-04T08:11:06.820Z,15.87
2018-06-04T08:13:35.442Z,15.43
2018-06-04T08:16:04.099Z,16.30
2018-06-04T08:18:32.709Z,16.00
2018-06-04T08:21:01.346Z,16.27
2018-06-04T08:23:29.986Z,16.83
2018-06-04T08:25:58.611Z,16.17
2018-06-04T08:28:27.259Z,16.23
2018-06-04T08:30:55.919Z,15.43
2018-06-04T08:33:24.563Z,16.33
2018-06-04T08:35:53.592Z,14.83
2018-06-04T08:38:22.246Z,16.13
2018-06-04T08:40:50.880Z,16.17
2018-06-04T08:43:19.515Z,18.47
2018-06-04T08:45:48.229Z,17.00
2018-06-04T08:48:16.850Z,16.13
2018-06-04T08:50:45.500Z,16.77
2018-06-04T08:53:14.156Z,17.40
2018-06-04T08:55:42.824Z,15.90
2018-06-04T08:58:11.463Z,18.27
2018-06-04T09:00:40.155Z,18.37
2018-06-04T09:03:08.843Z,19.10
2018-06-04T09:05:37.508Z,18.93
2018-06-04T09:08:06.169Z,17.43
2018-06-04T09:10:34.824Z,17.47
2018-06-04T09:13:03.502Z,18.60
2018-06-04T09:15:32.148Z,18.03
2018-06-04T09:18:00.882Z,16.87
2018-06-04T09:20:29.532Z,16.90
2018-06-04T09:22:58.172Z,17.10
2018-06-04T09:25:26.856Z,17.00
2018-06-04T09:27:55.495Z,17.10
2018-06-04T09:30:24.188Z,14.93
2018-06-04T09:32:52.889Z,16.30
2018-06-04T09:35:21.519Z,15.30
2018-06-04T09:37:50.199Z,14.93
2018-06-04T09:40:18.888Z,14.80
2018-06-04T09:42:47.563Z,12.13
2018-06-04T09:45:16.276Z,13.47
2018-06-04T09:47:44.944Z,13.17
2018-06-04T09:50:13.679Z,13.80
2018-06-04T09:52:42.316Z,13.17
2018-06-04T09:55:10.957Z,13.47
2018-06-04T09:57:39.645Z,14.27
2018-06-04T10:00:08.389Z,12.70
2018-06-04T10:02:37.021Z,12.47
2018-06-04T10:05:05.675Z,11.80
2018-06-04T10:07:34.328Z,11.90
2018-06-04T10:10:03.441Z,12.63
2018-06-04T10:12:32.140Z,13.03
2018-06-04T10:15:00.841Z,13.70
2018-06-04T10:17:29.575Z,13.57
2018-06-04T10:19:58.243Z,11.60
2018-06-04T10:22:26.967Z,12.93
2018-06-04T10:24:55.575Z,11.60
2018-06-04T10:27:24.266Z,13.63
2018-06-04T10:29:52.979Z,11.63
2018-06-04T10:32:21.626Z,11.93
2018-06-04T10:34:50.308Z,12.80
2018-06-04T10:37:18.968Z,14.40
2018-06-04T10:39:48.504Z,12.23
2018-06-04T10:42:17.132Z,12.90
2018-06-04T10:44:45.794Z,12.77
2018-06-04T10:47:14.456Z,14.00
2018-06-04T10:49:43.096Z,13.00
2018-06-04T10:52:11.768Z,13.87
2018-06-04T10:54:40.448Z,15.23
2018-06-04T10:57:09.129Z,13.90
2018-06-04T10:59:37.841Z,14.00
2018-06-04T11:02:06.449Z,14.13
2018-06-04T11:04:35.105Z,14.60
2018-06-04T11:07:03.834Z,15.43
2018-06-04T11:09:32.721Z,15.13
2018-06-04T11:12:01.436Z,15.47
2018-06-04T11:14:30.074Z,14.73
2018-06-04T11:16:58.775Z,14.30
2018-06-04T11:19:27.426Z,14.03
2018-06-04T11:21:56.048Z,15.03
2018-06-04T11:24:24.801Z,14.87
2018-06-04T11:26:53.408Z,15.97
2018-06-04T11:29:22.111Z,18.03
2018-06-04T11:31:50.876Z,14.93
2018-06-04T11:34:19.543Z,14.87
2018-06-04T11:36:48.248Z,15.93
2018-06-04T11:39:16.884Z,14.73
2018-06-04T11:41:45.540Z,15.10
2018-06-04T11:44:14.296Z,18.60
2018-06-04T11:46:42.975Z,16.47
2018-06-04T11:49:11.663Z,16.63
2018-06-04T11:51:40.372Z,20.10
2018-06-04T11:54:09.060Z,22.67
2018-06-04T11:56:37.774Z,21.77
2018-06-04T11:59:06.447Z,22.47
2018-06-04T12:01:35.095Z,20.43
2018-06-04T12:04:03.820Z,22.60
2018-06-04T12:06:32.468Z,20.37
2018-06-04T12:09:01.135Z,22.30
2018-06-04T12:11:29.875Z,22.27
2018-06-04T12:13:58.495Z,21.50
2018-06-04T12:16:27.183Z,22.50
2018-06-04T12:18:55.869Z,22.63
2018-06-04T12:21:24.617Z,22.80
2018-06-04T12:23:53.263Z,22.87
2018-06-04T12:26:21.883Z,23.90
2018-06-04T12:28:50.652Z,24.27
2018-06-04T12:31:20.145Z,23.63
2018-06-04T12:33:48.999Z,24.60
2018-06-04T12:36:17.683Z,21.10
2018-06-04T12:38:46.544Z,23.37
2018-06-04T12:41:16.024Z,23.50
2018-06-04T12:43:44.675Z,23.73
2018-06-04T12:46:13.354Z,20.83
2018-06-04T12:48:42.799Z,18.90
2018-06-04T12:51:12.211Z,21.33
2018-06-04T12:53:40.941Z,20.03
2018-06-04T12:56:09.688Z,23.47
2018-06-04T12:58:38.301Z,21.23
2018-06-04T13:01:06.981Z,24.47
2018-06-04T13:03:35.699Z,21.83
2018-06-04T13:06:04.307Z,25.50
2018-06-04T13:08:33.064Z,25.07
2018-06-04T13:11:01.727Z,27.20
2018-06-04T13:13:30.583Z,29.93
2018-06-04T13:15:59.330Z,29.80
2018-06-04T13:18:28.055Z,36.13
2018-06-04T13:20:56.815Z,29.13
2018-06-04T13:23:26.396Z,30.07
2018-06-04T13:25:55.240Z,39.50
2018-06-04T13:28:23.907Z,26.43
2018-06-04T13:30:52.543Z,36.97
2018-06-04T13:33:21.166Z,19.23
2018-06-04T13:35:49.831Z,20.80
2018-06-04T13:38:18.668Z,17.30
2018-06-04T13:40:47.380Z,15.73
2018-06-04T13:43:16.103Z,16.67
2018-06-04T13:45:44.732Z,15.20
2018-06-04T13:48:13.366Z,14.23
2018-06-04T13:50:42.041Z,14.20
2018-06-04T13:53:10.686Z,15.10
2018-06-04T13:55:39.409Z,15.53
2018-06-04T13:58:08.197Z,16.83
2018-06-04T14:00:36.824Z,16.57
2018-06-04T14:03:05.534Z,14.20
2018-06-04T14:05:34.276Z,14.53
2018-06-04T14:08:03.289Z,13.53
2018-06-04T14:10:31.968Z,13.20
2018-06-04T14:13:00.592Z,11.77
2018-06-04T14:15:29.439Z,12.30
2018-06-04T14:17:58.127Z,13.10
2018-06-04T14:20:26.783Z,11.90
2018-06-04T14:22:55.428Z,12.40
2018-06-04T14:25:24.234Z,12.10
2018-06-04T14:27:52.931Z,10.93
2018-06-04T14:30:21.653Z,13.37
2018-06-04T14:32:50.277Z,13.33
2018-06-04T14:35:18.951Z,27.80
2018-06-04T14:37:47.593Z,19.27
2018-06-04T14:40:16.281Z,20.60
2018-06-04T14:42:44.973Z,14.43
2018-06-04T14:45:13.611Z,16.03
2018-06-04T14:47:42.300Z,24.33
2018-06-04T14:50:10.917Z,12.10
2018-06-04T14:52:39.563Z,14.97
2018-06-04T14:55:08.171Z,17.47
2018-06-04T14:57:36.804Z,15.90
2018-06-04T15:00:05.487Z,16.77
2018-06-04T15:02:34.188Z,13.67
2018-06-04T15:05:02.877Z,15.43
2018-06-04T15:07:31.583Z,15.67
2018-06-04T15:10:00.237Z,14.33
2018-06-04T15:12:28.858Z,13.70
2018-06-04T15:14:57.563Z,14.90
2018-06-04T15:17:26.242Z,15.40
2018-06-04T15:19:54.916Z,15.70
2018-06-04T15:22:23.604Z,15.10
2018-06-04T15:24:52.608Z,14.87
2018-06-04T15:27:21.248Z,13.70
2018-06-04T15:29:49.927Z,15.73
2018-06-04T15:32:18.643Z,20.07
2018-06-04T15:34:47.251Z,24.23
2018-06-04T15:37:15.999Z,27.57
2018-06-04T15:39:44.729Z,24.47
2018-06-04T15:42:13.372Z,14.67
2018-06-04T15:44:42.024Z,28.40
2018-06-04T15:47:10.699Z,17.43
2018-06-04T15:49:39.375Z,16.93
2018-06-04T15:52:08.041Z,14.97
2018-06-04T15:54:36.683Z,14.97
2018-06-04T15:57:05.360Z,14.37
2018-06-04T15:59:34.239Z,16.37
2018-06-04T16:02:02.946Z,13.23
2018-06-04T16:04:31.618Z,12.97
2018-06-04T16:07:00.264Z,13.50
2018-06-04T16:09:28.968Z,12.93
2018-06-04T16:11:57.603Z,14.27
2018-06-04T16:14:26.219Z,13.00
2018-06-04T16:16:55.177Z,13.63
2018-06-04T16:19:23.831Z,12.67
2018-06-04T16:21:52.472Z,14.10
2018-06-04T16:24:21.191Z,13.00
2018-06-04T16:26:49.849Z,12.80
2018-06-04T16:29:18.527Z,12.77
2018-06-04T16:31:47.213Z,12.13
2018-06-04T16:34:16.050Z,12.37
2018-06-04T16:36:44.701Z,12.87
2018-06-04T16:39:13.366Z,12.20
2018-06-04T16:41:42.030Z,12.70
2018-06-04T16:44:10.679Z,12.80
2018-06-04T16:46:39.360Z,12.30
2018-06-04T16:49:08.139Z,12.23
2018-06-04T16:51:36.847Z,11.70
2018-06-04T16:54:05.719Z,13.67
2018-06-04T16:56:34.367Z,13.03
2018-06-04T16:59:03.074Z,11.73
2018-06-04T17:01:31.764Z,12.43
2018-06-04T17:04:00.447Z,12.30
2018-06-04T17:06:29.143Z,14.27
2018-06-04T17:08:57.791Z,12.97
2018-06-04T17:11:26.475Z,14.57
2018-06-04T17:13:55.149Z,14.87
2018-06-04T17:16:23.817Z,15.10
2018-06-04T17:18:52.471Z,14.77
2018-06-04T17:21:21.125Z,13.60
2018-06-04T17:23:49.800Z,14.87
2018-06-04T17:26:19.207Z,14.87
2018-06-04T17:28:47.899Z,12.90
2018-06-04T17:31:16.626Z,13.10
2018-06-04T17:33:45.485Z,14.70
2018-06-04T17:36:14.080Z,14.10
2018-06-04T17:38:42.711Z,13.17
2018-06-04T17:41:11.389Z,14.50
2018-06-04T17:43:40.142Z,15.67
2018-06-04T17:46:08.843Z,14.10
2018-06-04T17:48:37.471Z,17.90
2018-06-04T17:51:06.147Z,17.70
2018-06-04T17:53:34.803Z,16.20
2018-06-04T17:56:03.495Z,16.73
2018-06-04T17:58:32.179Z,16.20
2018-06-04T18:01:00.890Z,17.70
2018-06-04T18:03:29.542Z,15.70
2018-06-04T18:05:58.151Z,16.40
2018-06-04T18:08:26.871Z,16.70
2018-06-04T18:10:55.592Z,15.73
2018-06-04T18:13:24.519Z,15.60
2018-06-04T18:15:53.223Z,16.90
2018-06-04T18:18:21.880Z,16.13
2018-06-04T18:20:50.539Z,16.60
2018-06-04T18:23:19.181Z,16.30
2018-06-04T18:25:47.867Z,16.33
2018-06-04T18:28:16.503Z,17.50
2018-06-04T18:30:45.157Z,15.97
2018-06-04T18:33:13.917Z,16.50
2018-06-04T18:35:42.578Z,18.80
2018-06-04T18:38:11.218Z,18.07
2018-06-04T18:40:39.899Z,17.40
2018-06-04T18:43:08.572Z,16.17
2018-06-04T18:45:37.199Z,16.97
2018-06-04T18:48:06.359Z,15.03
2018-06-04T18:50:34.999Z,15.60
2018-06-04T18:53:03.648Z,18.57
2018-06-04T18:55:32.306Z,29.57
2018-06-04T18:58:00.956Z,49.30
2018-06-04T19:00:29.599Z,31.27
2018-06-04T19:02:58.223Z,20.10
2018-06-04T19:05:27.001Z,45.40
2018-06-04T19:07:55.660Z,37.60
2018-06-04T19:10:24.286Z,36.03
2018-06-04T19:12:52.955Z,22.77
2018-06-04T19:15:21.852Z,17.20
2018-06-04T19:17:51.098Z,24.33
2018-06-04T19:20:19.747Z,22.50
2018-06-04T19:22:48.451Z,18.47
2018-06-04T19:25:17.212Z,16.80
2018-06-04T19:27:45.871Z,16.30
2018-06-04T19:30:14.512Z,15.83
2018-06-04T19:32:43.161Z,16.10
2018-06-04T19:35:12.003Z,15.80
2018-06-04T19:37:40.633Z,15.67
2018-06-04T19:40:10.404Z,14.77
2018-06-04T19:42:39.068Z,15.00
2018-06-04T19:45:07.772Z,14.60
2018-06-04T19:47:36.439Z,15.20
2018-06-04T19:50:05.251Z,16.77
2018-06-04T19:52:34.078Z,13.73
2018-06-04T19:55:02.767Z,15.20
2018-06-04T19:57:31.423Z,14.97
2018-06-04T20:00:00.071Z,15.70
2018-06-04T20:02:28.758Z,16.37
2018-06-04T20:04:57.442Z,16.20
2018-06-04T20:07:26.095Z,15.50
2018-06-04T20:09:54.782Z,14.60
2018-06-04T20:12:23.427Z,15.87
2018-06-04T20:14:52.055Z,18.10
2018-06-04T20:17:21.041Z,16.83
2018-06-04T20:19:49.701Z,17.17
2018-06-04T20:22:18.348Z,16.77
2018-06-04T20:24:46.995Z,17.80
2018-06-04T20:27:15.667Z,17.57
2018-06-04T20:29:44.303Z,18.37
2018-06-04T20:32:12.978Z,17.60
2018-06-04T20:34:41.620Z,17.40
2018-06-04T20:37:10.256Z,18.07
2018-06-04T20:39:38.964Z,17.97
2018-06-04T20:42:07.604Z,18.30
2018-06-04T20:44:36.263Z,18.50
2018-06-04T20:47:05.060Z,19.50
2018-06-04T20:49:33.656Z,18.97
2018-06-04T20:52:02.315Z,20.10
2018-06-04T20:54:30.963Z,19.93
2018-06-04T20:56:59.635Z,18.50
2018-06-04T20:59:28.274Z,19.47
2018-06-04T21:01:56.975Z,21.20
2018-06-04T21:04:25.608Z,23.17
2018-06-04T21:06:54.321Z,23.60
2018-06-04T21:09:22.988Z,25.17
2018-06-04T21:11:51.775Z,26.20
2018-06-04T21:14:21.137Z,29.10
2018-06-04T21:16:49.958Z,22.50
2018-06-04T21:19:18.585Z,26.70
2018-06-04T21:21:47.251Z,23.80
2018-06-04T21:24:15.957Z,23.27
2018-06-04T21:26:44.673Z,22.30
2018-06-04T21:29:13.401Z,21.77
2018-06-04T21:31:42.109Z,23.17
2018-06-04T21:34:10.796Z,23.37
2018-06-04T21:36:39.522Z,25.33
2018-06-04T21:39:08.581Z,23.80
2018-06-04T21:41:37.450Z,22.97
2018-06-04T21:44:06.091Z,23.67
2018-06-04T21:46:34.848Z,21.97
2018-06-04T21:49:03.596Z,24.57
2018-06-04T21:51:32.228Z,23.10
2018-06-04T21:54:00.940Z,23.17
2018-06-04T21:56:29.744Z,23.73
2018-06-04T21:58:58.333Z,25.10
2018-06-04T22:01:26.971Z,24.67
2018-06-04T22:03:55.631Z,23.60
2018-06-04T22:06:24.315Z,25.70
2018-06-04T22:08:53.028Z,24.07
2018-06-04T22:11:21.716Z,24.70
2018-06-04T22:13:50.414Z,24.87
2018-06-04T22:16:19.040Z,24.97
2018-06-04T22:18:47.697Z,23.73
2018-06-04T22:21:16.420Z,24.00
2018-06-04T22:23:45.077Z,24.93
2018-06-04T22:26:13.703Z,26.17
2018-06-04T22:28:42.375Z,25.17
2018-06-04T22:31:11.128Z,24.40
2018-06-04T22:33:39.896Z,24.30
2018-06-04T22:36:08.559Z,25.63
2018-06-04T22:38:37.393Z,26.30
2018-06-04T22:41:06.180Z,27.00
2018-06-04T22:43:34.791Z,26.47
2018-06-04T22:46:03.473Z,24.30
2018-06-04T22:48:32.172Z,26.83
2018-06-04T22:51:00.820Z,27.53
2018-06-04T22:53:29.475Z,27.07
2018-06-04T22:55:58.123Z,26.70
2018-06-04T22:58:26.768Z,27.03
2018-06-04T23:00:55.380Z,28.83
2018-06-04T23:03:24.043Z,27.43
2018-06-04T23:05:52.727Z,26.77
2018-06-04T23:08:21.617Z,27.10
2018-06-04T23:10:50.274Z,27.20
2018-06-04T23:13:18.980Z,26.60
2018-06-04T23:15:47.651Z,26.03
2018-06-04T23:18:16.289Z,27.30
2018-06-04T23:20:44.927Z,28.33
2018-06-04T23:23:13.591Z,29.00
2018-06-04T23:25:42.264Z,27.37
2018-06-04T23:28:10.888Z,26.47
2018-06-04T23:30:39.558Z,29.00
2018-06-04T23:33:08.178Z,25.97
2018-06-04T23:35:36.778Z,28.20
2018-06-04T23:38:05.446Z,24.70
2018-06-04T23:40:34.115Z,26.80
2018-06-04T23:43:02.859Z,27.07
2018-06-04T23:45:31.588Z,26.77
2018-06-04T23:48:00.248Z,27.50
2018-06-04T23:50:28.915Z,29.37
2018-06-04T23:52:57.537Z,27.47
2018-06-04T23:55:26.232Z,27.80
2018-06-04T23:57:54.852Z,27.00
